createdAt,value
2017-11-17T00:01:24.126Z,23.33
2017-11-17T00:03:51.986Z,21.62
2017-11-17T00:06:19.963Z,22.40
2017-11-17T00:08:47.823Z,22.70
2017-11-17T00:11:15.695Z,22.50
2017-11-17T00:13:43.558Z,23.17
2017-11-17T00:16:11.426Z,22.80
2017-11-17T00:18:39.292Z,22.13
2017-11-17T00:21:07.160Z,22.17
2017-11-17T00:23:35.030Z,24.05
2017-11-17T00:26:02.894Z,22.52
2017-11-17T00:28:30.762Z,23.17
2017-11-17T00:30:58.629Z,24.65
2017-11-17T00:33:26.495Z,23.58
2017-11-17T00:35:54.364Z,23.00
2017-11-17T00:38:22.231Z,21.70
2017-11-17T00:40:50.098Z,24.25
2017-11-17T00:43:17.965Z,24.30
2017-11-17T00:45:45.838Z,24.92
2017-11-17T00:48:13.699Z,23.38
2017-11-17T00:50:41.568Z,23.30
2017-11-17T00:53:09.434Z,23.87
2017-11-17T00:55:37.302Z,23.90
2017-11-17T00:58:05.172Z,24.37
2017-11-17T01:00:33.039Z,25.45
2017-11-17T01:03:00.905Z,25.75
2017-11-17T01:05:28.772Z,22.33
2017-11-17T01:07:56.639Z,26.48
2017-11-17T01:10:24.507Z,24.58
2017-11-17T01:12:52.373Z,22.55
2017-11-17T01:15:20.240Z,27.13
2017-11-17T01:17:48.107Z,22.75
2017-11-17T01:20:15.976Z,22.73
2017-11-17T01:22:43.842Z,22.70
2017-11-17T01:25:11.714Z,23.87
2017-11-17T01:27:39.576Z,22.13
2017-11-17T01:30:07.448Z,22.30
2017-11-17T01:32:35.315Z,22.05
2017-11-17T01:35:03.180Z,22.83
2017-11-17T01:37:31.047Z,24.08
2017-11-17T01:39:58.915Z,26.92
2017-11-17T01:42:26.711Z,26.70
2017-11-17T01:44:55.366Z,31.17
2017-11-17T01:47:23.233Z,28.90
2017-11-17T01:49:51.100Z,22.25
2017-11-17T01:52:18.997Z,22.67
2017-11-17T01:54:47.656Z,24.37
2017-11-17T01:57:15.523Z,22.52
2017-11-17T01:59:43.388Z,25.35
2017-11-17T02:02:20.164Z,24.33
2017-11-17T02:04:48.134Z,24.15
2017-11-17T02:07:16.001Z,24.80
2017-11-17T02:09:43.872Z,23.45
2017-11-17T02:12:11.737Z,22.05
2017-11-17T02:14:39.808Z,23.08
2017-11-17T02:17:07.676Z,24.50
2017-11-17T02:19:35.649Z,23.55
2017-11-17T02:22:03.617Z,22.45
2017-11-17T02:24:31.486Z,25.60
2017-11-17T02:26:59.351Z,24.27
2017-11-17T02:29:27.324Z,25.12
2017-11-17T02:31:55.294Z,23.10
2017-11-17T02:34:23.159Z,26.45
2017-11-17T02:36:51.027Z,26.27
2017-11-17T02:39:19.001Z,25.88
2017-11-17T02:41:47.681Z,25.98
2017-11-17T02:44:15.554Z,27.13
2017-11-17T02:46:43.416Z,25.42
2017-11-17T02:49:11.384Z,26.05
2017-11-17T02:51:39.255Z,25.37
2017-11-17T02:54:07.938Z,27.35
2017-11-17T02:56:35.806Z,25.73
2017-11-17T02:59:03.777Z,28.02
2017-11-17T03:01:31.745Z,26.87
2017-11-17T03:03:59.611Z,25.42
2017-11-17T03:06:27.480Z,26.23
2017-11-17T03:08:55.349Z,24.95
2017-11-17T03:11:23.214Z,25.98
2017-11-17T03:13:51.081Z,25.12
2017-11-17T03:16:18.950Z,23.77
2017-11-17T03:18:46.816Z,24.00
2017-11-17T03:21:14.683Z,24.60
2017-11-17T03:23:42.554Z,26.12
2017-11-17T03:26:11.238Z,25.10
2017-11-17T03:28:39.207Z,22.58
2017-11-17T03:31:07.078Z,25.40
2017-11-17T03:33:34.942Z,24.60
2017-11-17T03:36:02.808Z,26.33
2017-11-17T03:38:30.676Z,23.80
2017-11-17T03:40:58.543Z,22.27
2017-11-17T03:43:26.411Z,25.33
2017-11-17T03:45:54.383Z,22.87
2017-11-17T03:48:22.248Z,23.58
2017-11-17T03:50:50.117Z,24.87
2017-11-17T03:53:17.982Z,23.75
2017-11-17T03:55:45.851Z,25.40
2017-11-17T03:58:13.717Z,23.90
2017-11-17T04:00:41.688Z,23.20
2017-11-17T04:03:09.556Z,24.25
2017-11-17T04:05:37.425Z,25.95
2017-11-17T04:08:05.288Z,25.17
2017-11-17T04:10:33.156Z,23.62
2017-11-17T04:13:01.023Z,25.08
2017-11-17T04:15:28.889Z,25.27
2017-11-17T04:17:56.758Z,23.30
2017-11-17T04:20:24.625Z,25.05
2017-11-17T04:22:53.191Z,26.30
2017-11-17T04:25:21.900Z,24.80
2017-11-17T04:27:49.763Z,26.85
2017-11-17T04:30:17.629Z,26.98
2017-11-17T04:32:45.498Z,27.95
2017-11-17T04:35:13.570Z,27.37
2017-11-17T04:37:41.437Z,29.25
2017-11-17T04:40:09.407Z,28.67
2017-11-17T04:42:37.273Z,25.67
2017-11-17T04:45:05.141Z,28.67
2017-11-17T04:47:33.014Z,27.50
2017-11-17T04:50:00.876Z,30.33
2017-11-17T04:52:28.742Z,28.77
2017-11-17T04:54:56.541Z,28.12
2017-11-17T04:57:25.196Z,27.40
2017-11-17T04:59:53.062Z,27.95
2017-11-17T05:02:20.929Z,27.92
2017-11-17T05:04:48.796Z,28.33
2017-11-17T05:07:16.663Z,28.85
2017-11-17T05:09:44.530Z,27.55
2017-11-17T05:12:12.398Z,28.58
2017-11-17T05:14:40.267Z,27.52
2017-11-17T05:17:08.443Z,26.00
2017-11-17T05:19:39.843Z,27.73
2017-11-17T05:22:10.722Z,24.60
2017-11-17T05:24:38.697Z,26.50
2017-11-17T05:27:06.565Z,24.20
2017-11-17T05:29:34.433Z,26.10
2017-11-17T05:32:02.306Z,23.95
2017-11-17T05:34:30.177Z,27.15
2017-11-17T05:36:58.040Z,26.00
2017-11-17T05:39:25.835Z,25.95
2017-11-17T05:41:54.487Z,26.00
2017-11-17T05:44:22.357Z,26.48
2017-11-17T05:46:50.087Z,26.70
2017-11-17T05:49:17.989Z,24.65
2017-11-17T05:51:45.854Z,25.10
2017-11-17T05:54:13.724Z,24.75
2017-11-17T05:56:41.587Z,26.20
2017-11-17T05:59:09.454Z,26.15
2017-11-17T06:01:37.324Z,26.80
2017-11-17T06:04:05.189Z,24.45
2017-11-17T06:06:33.057Z,25.62
2017-11-17T06:09:00.927Z,26.65
2017-11-17T06:11:28.791Z,27.17
2017-11-17T06:13:56.658Z,25.73
2017-11-17T06:16:24.526Z,27.33
2017-11-17T06:18:52.403Z,26.30
2017-11-17T06:21:20.260Z,27.60
2017-11-17T06:23:48.127Z,25.50
2017-11-17T06:26:15.995Z,26.23
2017-11-17T06:28:43.862Z,25.45
2017-11-17T06:31:11.730Z,27.25
2017-11-17T06:33:39.599Z,27.20
2017-11-17T06:36:07.566Z,26.20
2017-11-17T06:38:35.433Z,25.23
2017-11-17T06:41:03.302Z,25.20
2017-11-17T06:43:31.169Z,28.67
2017-11-17T06:45:59.037Z,27.50
2017-11-17T06:48:26.904Z,29.37
2017-11-17T06:50:54.770Z,27.80
2017-11-17T06:53:22.638Z,28.83
2017-11-17T06:55:50.506Z,28.40
2017-11-17T06:58:18.372Z,27.17
2017-11-17T07:00:46.239Z,30.37
2017-11-17T07:03:14.122Z,29.27
2017-11-17T07:05:41.979Z,27.87
2017-11-17T07:08:09.842Z,27.33
2017-11-17T07:10:37.711Z,31.67
2017-11-17T07:13:05.576Z,30.88
2017-11-17T07:15:33.442Z,30.58
2017-11-17T07:18:01.243Z,30.90
2017-11-17T07:20:29.937Z,27.67
2017-11-17T07:22:58.582Z,28.02
2017-11-17T07:25:26.448Z,26.52
2017-11-17T07:27:54.320Z,30.55
2017-11-17T07:30:22.183Z,30.40
2017-11-17T07:32:50.055Z,30.00
2017-11-17T07:35:17.920Z,27.87
2017-11-17T07:37:45.785Z,27.73
2017-11-17T07:40:13.652Z,27.42
2017-11-17T07:42:41.519Z,28.35
2017-11-17T07:45:09.387Z,27.83
2017-11-17T07:47:37.255Z,27.27
2017-11-17T07:50:05.121Z,28.62
2017-11-17T07:52:32.989Z,30.15
2017-11-17T07:55:00.856Z,31.33
2017-11-17T07:57:28.722Z,29.77
2017-11-17T07:59:56.591Z,29.40
2017-11-17T08:02:24.459Z,31.87
2017-11-17T08:04:52.328Z,30.25
2017-11-17T08:07:20.195Z,32.67
2017-11-17T08:09:48.058Z,32.20
2017-11-17T08:12:15.928Z,29.20
2017-11-17T08:14:43.796Z,32.40
2017-11-17T08:17:24.566Z,33.22
2017-11-17T08:19:52.432Z,33.28
2017-11-17T08:22:20.300Z,32.88
2017-11-17T08:24:48.166Z,29.85
2017-11-17T08:27:16.033Z,31.98
2017-11-17T08:29:43.903Z,30.88
2017-11-17T08:32:11.769Z,32.33
2017-11-17T08:34:39.634Z,31.77
2017-11-17T08:37:07.503Z,35.15
2017-11-17T08:39:35.384Z,32.85
2017-11-17T08:42:03.237Z,35.97
2017-11-17T08:44:31.104Z,33.53
2017-11-17T08:46:58.976Z,30.83
2017-11-17T08:49:26.843Z,33.33
2017-11-17T08:51:54.717Z,34.00
2017-11-17T08:54:22.575Z,34.13
2017-11-17T08:56:50.446Z,31.27
2017-11-17T08:59:18.313Z,34.92
2017-11-17T09:01:46.179Z,32.95
2017-11-17T09:04:14.047Z,32.97
2017-11-17T09:06:41.911Z,33.78
2017-11-17T09:09:09.778Z,33.80
2017-11-17T09:11:37.648Z,33.50
2017-11-17T09:14:05.512Z,35.35
2017-11-17T09:16:33.382Z,32.50
2017-11-17T09:19:01.247Z,35.33
2017-11-17T09:21:29.114Z,35.92
2017-11-17T09:23:56.981Z,32.55
2017-11-17T09:26:24.850Z,36.05
2017-11-17T09:28:52.716Z,33.67
2017-11-17T09:31:20.585Z,34.15
2017-11-17T09:33:48.456Z,33.33
2017-11-17T09:36:16.319Z,34.35
2017-11-17T09:38:44.184Z,34.35
2017-11-17T09:41:12.052Z,32.38
2017-11-17T09:43:39.920Z,32.42
2017-11-17T09:46:07.890Z,34.47
2017-11-17T09:48:35.757Z,33.92
2017-11-17T09:51:03.625Z,33.38
2017-11-17T09:53:31.492Z,34.05
2017-11-17T09:55:59.360Z,31.20
2017-11-17T09:58:27.227Z,33.55
2017-11-17T10:00:55.099Z,34.35
2017-11-17T10:03:22.962Z,34.78
2017-11-17T10:05:50.829Z,35.10
2017-11-17T10:08:18.696Z,39.15
2017-11-17T10:10:46.563Z,33.42
2017-11-17T10:13:14.430Z,34.17
2017-11-17T10:15:42.304Z,39.47
2017-11-17T10:18:10.166Z,38.42
2017-11-17T10:20:38.135Z,39.03
2017-11-17T10:23:06.003Z,36.92
2017-11-17T10:25:33.868Z,37.50
2017-11-17T10:28:01.736Z,37.13
2017-11-17T10:30:29.611Z,37.05
2017-11-17T10:32:57.471Z,37.35
2017-11-17T10:35:25.339Z,36.63
2017-11-17T10:37:53.207Z,34.92
2017-11-17T10:40:21.175Z,37.00
2017-11-17T10:42:49.043Z,36.80
2017-11-17T10:45:16.919Z,35.88
2017-11-17T10:47:44.778Z,34.20
2017-11-17T10:50:12.746Z,36.50
2017-11-17T10:52:40.615Z,39.38
2017-11-17T10:55:08.481Z,36.85
2017-11-17T10:57:36.349Z,39.22
2017-11-17T11:00:04.319Z,36.55
2017-11-17T11:02:32.186Z,38.63
2017-11-17T11:05:00.054Z,36.83
2017-11-17T11:07:27.919Z,36.20
2017-11-17T11:09:55.787Z,38.00
2017-11-17T11:12:23.657Z,38.85
2017-11-17T11:14:51.526Z,37.72
2017-11-17T11:17:19.390Z,39.97
2017-11-17T11:19:47.256Z,38.20
2017-11-17T11:22:15.124Z,39.08
2017-11-17T11:24:42.992Z,37.05
2017-11-17T11:27:10.862Z,36.15
2017-11-17T11:29:38.725Z,36.60
2017-11-17T11:32:06.593Z,35.50
2017-11-17T11:34:34.463Z,34.70
2017-11-17T11:37:02.327Z,33.00
2017-11-17T11:39:30.196Z,32.30
2017-11-17T11:41:58.061Z,32.35
2017-11-17T11:44:25.929Z,34.17
2017-11-17T11:46:53.804Z,31.92
2017-11-17T11:49:21.664Z,33.72
2017-11-17T11:51:49.541Z,33.92
2017-11-17T11:54:17.402Z,33.08
2017-11-17T11:56:45.267Z,34.65
2017-11-17T11:59:13.134Z,32.22
2017-11-17T12:01:41.001Z,35.92
2017-11-17T12:04:08.874Z,33.83
2017-11-17T12:06:36.742Z,36.05
2017-11-17T12:09:04.711Z,30.92
2017-11-17T12:11:32.572Z,28.33
2017-11-17T12:14:00.549Z,33.33
2017-11-17T12:16:28.411Z,33.05
2017-11-17T12:18:56.279Z,29.95
2017-11-17T12:21:24.146Z,29.52
2017-11-17T12:23:52.013Z,33.50
2017-11-17T12:26:19.880Z,32.60
2017-11-17T12:28:47.745Z,31.92
2017-11-17T12:31:15.611Z,31.42
2017-11-17T12:33:43.480Z,32.58
2017-11-17T12:36:11.349Z,31.73
2017-11-17T12:38:39.214Z,33.85
2017-11-17T12:41:07.083Z,30.42
2017-11-17T12:43:34.950Z,30.60
2017-11-17T12:46:02.821Z,32.05
2017-11-17T12:48:30.687Z,30.73
2017-11-17T12:50:58.553Z,34.35
2017-11-17T12:53:26.352Z,34.13
2017-11-17T12:55:55.003Z,32.97
2017-11-17T12:58:22.869Z,34.25
2017-11-17T13:00:50.746Z,32.78
2017-11-17T13:03:18.604Z,31.75
2017-11-17T13:05:46.471Z,33.30
2017-11-17T13:08:14.341Z,35.38
2017-11-17T13:10:42.208Z,33.30
2017-11-17T13:13:10.076Z,33.75
2017-11-17T13:15:37.941Z,34.15
2017-11-17T13:18:05.813Z,35.47
2017-11-17T13:20:33.677Z,33.47
2017-11-17T13:23:01.543Z,35.22
2017-11-17T13:25:29.410Z,37.63
2017-11-17T13:27:57.278Z,33.63
2017-11-17T13:30:25.145Z,37.13
2017-11-17T13:32:53.012Z,32.78
2017-11-17T13:35:20.879Z,34.60
2017-11-17T13:37:48.747Z,34.88
2017-11-17T13:40:16.614Z,36.00
2017-11-17T13:42:44.481Z,35.42
2017-11-17T13:45:12.349Z,32.95
2017-11-17T13:47:40.215Z,32.35
2017-11-17T13:50:08.083Z,34.03
2017-11-17T13:52:35.952Z,33.53
2017-11-17T13:55:03.818Z,33.50
2017-11-17T13:57:31.795Z,31.30
2017-11-17T13:59:59.654Z,32.00
2017-11-17T14:02:27.523Z,32.85
2017-11-17T14:04:55.391Z,34.78
2017-11-17T14:07:23.256Z,34.40
2017-11-17T14:09:51.125Z,35.35
2017-11-17T14:12:18.991Z,33.88
2017-11-17T14:14:46.859Z,33.72
2017-11-17T14:17:14.726Z,34.42
2017-11-17T14:19:42.594Z,34.95
2017-11-17T14:22:10.460Z,34.65
2017-11-17T14:24:38.328Z,37.40
2017-11-17T14:27:06.195Z,34.67
2017-11-17T14:29:34.067Z,36.25
2017-11-17T14:32:01.931Z,35.25
2017-11-17T14:34:29.798Z,37.67
2017-11-17T14:36:57.664Z,34.20
2017-11-17T14:39:25.532Z,34.20
2017-11-17T14:41:54.218Z,35.35
2017-11-17T14:44:22.084Z,34.70
2017-11-17T14:46:49.953Z,34.03
2017-11-17T14:49:17.820Z,34.55
2017-11-17T14:51:45.688Z,34.42
2017-11-17T14:54:13.556Z,35.97
2017-11-17T14:56:41.422Z,34.25
2017-11-17T14:59:09.477Z,33.20
2017-11-17T15:01:37.361Z,33.97
2017-11-17T15:04:05.229Z,33.55
2017-11-17T15:06:33.097Z,35.75
2017-11-17T15:09:00.963Z,36.20
2017-11-17T15:11:28.830Z,36.33
2017-11-17T15:13:56.697Z,36.40
2017-11-17T15:16:24.565Z,36.10
2017-11-17T15:18:52.438Z,40.47
2017-11-17T15:21:20.402Z,34.25
2017-11-17T15:23:48.275Z,36.53
2017-11-17T15:26:16.142Z,39.28
2017-11-17T15:28:44.007Z,36.63
2017-11-17T15:31:11.875Z,36.20
2017-11-17T15:33:39.848Z,38.63
2017-11-17T15:36:07.714Z,40.67
2017-11-17T15:38:35.679Z,39.35
2017-11-17T15:41:03.548Z,38.50
2017-11-17T15:43:31.417Z,39.25
2017-11-17T15:45:59.279Z,37.45
2017-11-17T15:48:27.249Z,40.40
2017-11-17T15:50:55.118Z,41.37
2017-11-17T15:53:22.985Z,40.17
2017-11-17T15:55:50.854Z,40.58
2017-11-17T15:58:18.719Z,38.08
2017-11-17T16:00:46.688Z,37.78
2017-11-17T16:03:14.556Z,38.80
2017-11-17T16:05:42.461Z,41.83
2017-11-17T16:08:11.111Z,42.58
2017-11-17T16:10:38.977Z,43.55
2017-11-17T16:13:06.948Z,41.47
2017-11-17T16:15:34.814Z,40.40
2017-11-17T16:18:02.784Z,41.58
2017-11-17T16:20:30.651Z,40.35
2017-11-17T16:22:58.519Z,40.03
2017-11-17T16:25:26.386Z,39.83
2017-11-17T16:27:54.274Z,41.75
2017-11-17T16:30:22.222Z,41.97
2017-11-17T16:32:50.090Z,39.50
2017-11-17T16:35:17.964Z,41.95
2017-11-17T16:37:45.828Z,38.08
2017-11-17T16:40:13.692Z,40.67
2017-11-17T16:42:41.563Z,37.35
2017-11-17T16:45:09.441Z,40.30
2017-11-17T16:47:38.117Z,42.28
2017-11-17T16:50:06.087Z,39.05
2017-11-17T16:52:33.952Z,39.50
2017-11-17T16:55:01.819Z,40.12
2017-11-17T16:57:29.686Z,39.33
2017-11-17T16:59:57.551Z,40.22
2017-11-17T17:02:25.419Z,38.53
2017-11-17T17:04:53.305Z,40.25
2017-11-17T17:07:21.973Z,40.92
2017-11-17T17:09:49.840Z,43.15
2017-11-17T17:12:17.707Z,40.58
2017-11-17T17:14:45.576Z,41.13
2017-11-17T17:17:13.453Z,39.17
2017-11-17T17:19:41.311Z,41.97
2017-11-17T17:22:09.179Z,42.90
2017-11-17T17:24:37.045Z,39.80
2017-11-17T17:27:04.914Z,42.20
2017-11-17T17:29:32.781Z,39.95
2017-11-17T17:32:00.648Z,43.00
2017-11-17T17:34:28.514Z,44.33
2017-11-17T17:36:56.381Z,43.22
2017-11-17T17:39:24.249Z,42.67
2017-11-17T17:41:52.117Z,42.85
2017-11-17T17:44:19.983Z,41.97
2017-11-17T17:46:47.851Z,45.33
2017-11-17T17:49:15.718Z,45.75
2017-11-17T17:51:43.585Z,42.90
2017-11-17T17:54:11.454Z,45.70
2017-11-17T17:56:39.416Z,46.20
2017-11-17T17:59:07.225Z,44.42
2017-11-17T18:01:36.034Z,45.17
2017-11-17T18:04:04.253Z,47.38
2017-11-17T18:06:32.120Z,47.05
2017-11-17T18:08:59.987Z,46.75
2017-11-17T18:11:27.856Z,47.65
2017-11-17T18:13:55.725Z,45.78
2017-11-17T18:16:23.599Z,44.70
2017-11-17T18:18:51.457Z,42.30
2017-11-17T18:21:19.327Z,45.38
2017-11-17T18:23:47.236Z,44.33
2017-11-17T18:26:15.878Z,46.60
2017-11-17T18:28:45.172Z,45.50
2017-11-17T18:31:13.885Z,45.38
2017-11-17T18:33:42.286Z,41.72
2017-11-17T18:36:11.034Z,42.67
2017-11-17T18:38:39.720Z,42.20
2017-11-17T18:41:07.610Z,43.92
2017-11-17T18:43:35.799Z,43.22
2017-11-17T18:46:04.473Z,48.47
2017-11-17T18:48:32.321Z,44.63
2017-11-17T18:51:01.044Z,41.03
2017-11-17T18:53:29.694Z,41.15
2017-11-17T18:55:57.558Z,38.70
2017-11-17T18:58:25.425Z,40.72
2017-11-17T19:00:53.297Z,43.47
2017-11-17T19:03:21.159Z,44.22
2017-11-17T19:05:49.026Z,43.42
2017-11-17T19:08:16.893Z,42.58
2017-11-17T19:10:44.826Z,42.47
2017-11-17T19:13:13.454Z,42.92
2017-11-17T19:15:41.357Z,41.08
2017-11-17T19:18:09.182Z,41.70
2017-11-17T19:20:37.050Z,41.00
2017-11-17T19:23:04.917Z,39.80
2017-11-17T19:25:32.785Z,39.42
2017-11-17T19:28:00.652Z,42.72
2017-11-17T19:30:28.520Z,39.13
2017-11-17T19:32:56.386Z,37.30
2017-11-17T19:35:24.253Z,41.58
2017-11-17T19:37:52.120Z,43.63
2017-11-17T19:40:19.987Z,41.63
2017-11-17T19:42:47.854Z,42.58
2017-11-17T19:45:15.721Z,43.05
2017-11-17T19:47:43.589Z,44.53
2017-11-17T19:50:11.456Z,39.47
2017-11-17T19:52:39.324Z,44.28
2017-11-17T19:55:07.193Z,39.47
2017-11-17T19:57:35.161Z,40.17
2017-11-17T20:00:03.033Z,43.33
2017-11-17T20:02:30.896Z,44.33
2017-11-17T20:04:58.764Z,43.45
2017-11-17T20:07:26.630Z,42.78
2017-11-17T20:09:54.498Z,39.95
2017-11-17T20:12:22.365Z,41.35
2017-11-17T20:14:50.249Z,43.75
2017-11-17T20:17:18.099Z,39.15
2017-11-17T20:19:45.969Z,38.72
2017-11-17T20:22:13.836Z,42.30
2017-11-17T20:24:41.704Z,42.25
2017-11-17T20:27:09.569Z,39.50
2017-11-17T20:29:37.435Z,39.20
2017-11-17T20:32:05.307Z,41.05
2017-11-17T20:34:33.170Z,40.38
2017-11-17T20:37:01.038Z,39.83
2017-11-17T20:39:28.906Z,42.08
2017-11-17T20:41:56.773Z,53.90
2017-11-17T20:44:24.640Z,58.25
2017-11-17T20:46:52.511Z,93.40
2017-11-17T20:49:20.375Z,55.95
2017-11-17T20:51:48.250Z,85.55
2017-11-17T20:54:16.825Z,68.03
2017-11-17T20:56:44.696Z,50.90
2017-11-17T20:59:12.561Z,51.78
2017-11-17T21:01:40.428Z,45.05
2017-11-17T21:04:08.294Z,43.87
2017-11-17T21:06:36.164Z,38.95
2017-11-17T21:09:04.030Z,42.28
2017-11-17T21:11:31.897Z,37.78
2017-11-17T21:13:59.765Z,40.35
2017-11-17T21:16:27.632Z,39.25
2017-11-17T21:18:55.503Z,37.95
2017-11-17T21:21:23.365Z,38.20
2017-11-17T21:23:51.234Z,37.15
2017-11-17T21:26:19.101Z,38.25
2017-11-17T21:28:46.968Z,38.67
2017-11-17T21:31:14.836Z,39.83
2017-11-17T21:33:42.703Z,37.13
2017-11-17T21:36:10.573Z,39.03
2017-11-17T21:38:38.540Z,39.78
2017-11-17T21:41:06.406Z,41.33
2017-11-17T21:43:34.274Z,39.70
2017-11-17T21:46:02.147Z,40.67
2017-11-17T21:48:30.009Z,39.58
2017-11-17T21:50:57.877Z,40.08
2017-11-17T21:53:25.789Z,41.40
2017-11-17T21:55:54.431Z,38.53
2017-11-17T21:58:22.302Z,42.58
2017-11-17T22:00:50.167Z,43.33
2017-11-17T22:03:18.038Z,42.05
2017-11-17T22:05:45.904Z,43.05
2017-11-17T22:08:13.771Z,42.75
2017-11-17T22:10:41.645Z,42.10
2017-11-17T22:13:09.503Z,41.33
2017-11-17T22:15:37.371Z,43.50
2017-11-17T22:18:05.259Z,39.97
2017-11-17T22:20:33.105Z,41.70
2017-11-17T22:23:00.970Z,39.58
2017-11-17T22:25:28.838Z,44.63
2017-11-17T22:27:56.707Z,46.10
2017-11-17T22:30:24.573Z,48.08
2017-11-17T22:32:52.445Z,45.45
2017-11-17T22:35:20.307Z,40.97
2017-11-17T22:37:48.175Z,41.15
2017-11-17T22:40:16.043Z,45.40
2017-11-17T22:42:43.909Z,40.80
2017-11-17T22:45:11.777Z,43.05
2017-11-17T22:47:39.746Z,41.70
2017-11-17T22:50:07.613Z,42.60
2017-11-17T22:52:35.480Z,40.17
2017-11-17T22:55:03.385Z,41.42
2017-11-17T22:57:32.036Z,40.70
2017-11-17T22:59:59.902Z,39.47
2017-11-17T23:02:27.769Z,39.05
2017-11-17T23:04:55.574Z,41.17
2017-11-17T23:07:24.221Z,38.85
2017-11-17T23:09:52.088Z,41.47
2017-11-17T23:12:19.957Z,42.90
2017-11-17T23:14:47.826Z,39.05
2017-11-17T23:17:15.691Z,39.35
2017-11-17T23:19:43.561Z,42.45
2017-11-17T23:22:11.429Z,44.08
2017-11-17T23:24:39.291Z,42.03
2017-11-17T23:27:08.080Z,41.83
2017-11-17T23:29:35.949Z,42.45
2017-11-17T23:32:03.817Z,45.50
2017-11-17T23:34:31.682Z,41.55
2017-11-17T23:36:59.492Z,39.05
2017-11-17T23:39:28.135Z,40.78
2017-11-17T23:41:56.002Z,41.25
2017-11-17T23:44:23.869Z,41.95
2017-11-17T23:46:51.736Z,45.20
2017-11-17T23:49:19.604Z,39.10
2017-11-17T23:51:47.471Z,45.83
2017-11-17T23:54:15.259Z,42.67
2017-11-17T23:56:43.103Z,42.55
2017-11-17T23:59:10.970Z,38.40
